sensor_id;sensor_type;location;lat;lon;timestamp;pressure;altitude;pressure_sealevel;temperature;humidity
68376;BME280;55318;52.068;5.188;2023-04-27T00:01:33;102191.0;;;3.64;91.16
68376;BME280;55318;52.068;5.188;2023-04-27T00:04:45;102184.0;;;3.6;91.02
68376;BME280;55318;52.068;5.188;2023-04-27T00:06:22;102189.0;;;3.57;91.04
68376;BME280;55318;52.068;5.188;2023-04-27T00:07:58;102189.0;;;3.55;90.98
68376;BME280;55318;52.068;5.188;2023-04-27T00:11:10;102191.0;;;3.51;90.87
68376;BME280;55318;52.068;5.188;2023-04-27T00:12:46;102191.0;;;3.51;91.38
68376;BME280;55318;52.068;5.188;2023-04-27T00:14:23;102191.0;;;3.51;91.24
68376;BME280;55318;52.068;5.188;2023-04-27T00:17:36;102191.0;;;3.51;91.9
68376;BME280;55318;52.068;5.188;2023-04-27T00:19:12;102191.0;;;3.47;91.52
68376;BME280;55318;52.068;5.188;2023-04-27T00:20:48;102188.0;;;3.44;91.36
68376;BME280;55318;52.068;5.188;2023-04-27T00:22:24;102183.0;;;3.45;91.18
68376;BME280;55318;52.068;5.188;2023-04-27T00:25:37;102184.0;;;3.49;91.12
68376;BME280;55318;52.068;5.188;2023-04-27T00:27:13;102181.0;;;3.46;91.23
68376;BME280;55318;52.068;5.188;2023-04-27T00:28:50;102177.0;;;3.5;90.84
68376;BME280;55318;52.068;5.188;2023-04-27T00:32:02;102175.0;;;3.42;90.7
68376;BME280;55318;52.068;5.188;2023-04-27T00:33:38;102176.0;;;3.4;90.42
68376;BME280;55318;52.068;5.188;2023-04-27T00:35:14;102176.0;;;3.46;90.65
68376;BME280;55318;52.068;5.188;2023-04-27T00:38:27;102177.0;;;3.42;91.05
68376;BME280;55318;52.068;5.188;2023-04-27T00:40:04;102178.0;;;3.39;91.4
68376;BME280;55318;52.068;5.188;2023-04-27T00:41:41;102181.0;;;3.38;91.5
68376;BME280;55318;52.068;5.188;2023-04-27T00:43:17;102183.0;;;3.33;91.52
68376;BME280;55318;52.068;5.188;2023-04-27T00:46:32;102186.0;;;3.25;91.5
68376;BME280;55318;52.068;5.188;2023-04-27T00:48:09;102181.0;;;3.22;91.6
68376;BME280;55318;52.068;5.188;2023-04-27T00:49:46;102184.0;;;3.19;91.47
68376;BME280;55318;52.068;5.188;2023-04-27T00:52:59;102183.0;;;3.14;91.5
68376;BME280;55318;52.068;5.188;2023-04-27T00:54:37;102186.0;;;3.13;91.88
68376;BME280;55318;52.068;5.188;2023-04-27T00:56:13;102180.0;;;3.13;91.86
68376;BME280;55318;52.068;5.188;2023-04-27T00:59:25;102172.0;;;3.08;92.18
68376;BME280;55318;52.068;5.188;2023-04-27T01:01:01;102171.0;;;3.19;91.6
68376;BME280;55318;52.068;5.188;2023-04-27T01:02:38;102168.0;;;3.11;91.76
68376;BME280;55318;52.068;5.188;2023-04-27T01:04:15;102169.0;;;3.15;91.72
68376;BME280;55318;52.068;5.188;2023-04-27T01:07:28;102165.0;;;3.12;91.65
68376;BME280;55318;52.068;5.188;2023-04-27T01:09:04;102164.0;;;3.11;91.99
68376;BME280;55318;52.068;5.188;2023-04-27T01:10:40;102164.0;;;3.1;92.06
68376;BME280;55318;52.068;5.188;2023-04-27T01:13:53;102162.0;;;3.04;91.98
68376;BME280;55318;52.068;5.188;2023-04-27T01:15:30;102167.0;;;3.07;91.77
68376;BME280;55318;52.068;5.188;2023-04-27T01:17:06;102168.0;;;3.02;91.96
68376;BME280;55318;52.068;5.188;2023-04-27T01:20:18;102173.0;;;3.0;92.98
68376;BME280;55318;52.068;5.188;2023-04-27T01:21:54;102172.0;;;2.99;92.42
68376;BME280;55318;52.068;5.188;2023-04-27T01:23:31;102174.0;;;2.95;92.33
68376;BME280;55318;52.068;5.188;2023-04-27T01:25:07;102173.0;;;2.92;92.7
68376;BME280;55318;52.068;5.188;2023-04-27T01:28:19;102182.0;;;2.88;92.18
68376;BME280;55318;52.068;5.188;2023-04-27T01:29:55;102180.0;;;2.83;92.13
68376;BME280;55318;52.068;5.188;2023-04-27T01:31:31;102172.0;;;2.83;92.05
68376;BME280;55318;52.068;5.188;2023-04-27T01:34:44;102168.0;;;2.82;92.19
68376;BME280;55318;52.068;5.188;2023-04-27T01:36:21;102165.0;;;2.78;92.25
68376;BME280;55318;52.068;5.188;2023-04-27T01:37:57;102160.0;;;2.75;92.28
68376;BME280;55318;52.068;5.188;2023-04-27T01:41:09;102157.0;;;2.75;92.39
68376;BME280;55318;52.068;5.188;2023-04-27T01:42:45;102155.0;;;2.77;92.04
68376;BME280;55318;52.068;5.188;2023-04-27T01:44:21;102151.0;;;2.75;91.99
68376;BME280;55318;52.068;5.188;2023-04-27T01:47:40;102151.0;;;2.74;92.09
68376;BME280;55318;52.068;5.188;2023-04-27T01:49:16;102152.0;;;2.72;92.48
68376;BME280;55318;52.068;5.188;2023-04-27T01:50:53;102153.0;;;2.68;92.36
68376;BME280;55318;52.068;5.188;2023-04-27T01:52:29;102157.0;;;2.69;92.46
68376;BME280;55318;52.068;5.188;2023-04-27T01:55:42;102150.0;;;2.69;92.36
68376;BME280;55318;52.068;5.188;2023-04-27T01:58:54;102149.0;;;2.63;92.62
68376;BME280;55318;52.068;5.188;2023-04-27T02:02:07;102150.0;;;2.6;92.4
68376;BME280;55318;52.068;5.188;2023-04-27T02:03:43;102151.0;;;2.59;92.22
68376;BME280;55318;52.068;5.188;2023-04-27T02:05:19;102152.0;;;2.57;92.44
68376;BME280;55318;52.068;5.188;2023-04-27T02:06:55;102152.0;;;2.57;92.2
68376;BME280;55318;52.068;5.188;2023-04-27T02:10:08;102159.0;;;2.54;92.44
68376;BME280;55318;52.068;5.188;2023-04-27T02:11:44;102156.0;;;2.56;92.24
68376;BME280;55318;52.068;5.188;2023-04-27T02:13:20;102155.0;;;2.52;92.61
68376;BME280;55318;52.068;5.188;2023-04-27T02:16:33;102153.0;;;2.48;92.29
68376;BME280;55318;52.068;5.188;2023-04-27T02:18:09;102155.0;;;2.46;92.5
68376;BME280;55318;52.068;5.188;2023-04-27T02:19:46;102158.0;;;2.42;92.45
68376;BME280;55318;52.068;5.188;2023-04-27T02:22:58;102149.0;;;2.41;92.36
68376;BME280;55318;52.068;5.188;2023-04-27T02:24:34;102150.0;;;2.4;92.66
68376;BME280;55318;52.068;5.188;2023-04-27T02:26:15;102149.0;;;2.38;92.77
68376;BME280;55318;52.068;5.188;2023-04-27T02:27:51;102152.0;;;2.34;92.74
68376;BME280;55318;52.068;5.188;2023-04-27T02:31:05;102140.0;;;2.29;92.8
68376;BME280;55318;52.068;5.188;2023-04-27T02:32:42;102144.0;;;2.31;93.03
68376;BME280;55318;52.068;5.188;2023-04-27T02:34:18;102147.0;;;2.31;92.95
68376;BME280;55318;52.068;5.188;2023-04-27T02:37:30;102145.0;;;2.29;92.92
68376;BME280;55318;52.068;5.188;2023-04-27T02:39:06;102138.0;;;2.32;92.94
68376;BME280;55318;52.068;5.188;2023-04-27T02:40:42;102134.0;;;2.27;92.9
68376;BME280;55318;52.068;5.188;2023-04-27T02:43:54;102137.0;;;2.25;92.96
68376;BME280;55318;52.068;5.188;2023-04-27T02:45:30;102139.0;;;2.25;92.63
68376;BME280;55318;52.068;5.188;2023-04-27T02:47:07;102137.0;;;2.21;92.42
68376;BME280;55318;52.068;5.188;2023-04-27T02:50:19;102134.0;;;2.19;92.91
68376;BME280;55318;52.068;5.188;2023-04-27T02:51:55;102134.0;;;2.23;93.12
68376;BME280;55318;52.068;5.188;2023-04-27T02:53:31;102130.0;;;2.15;92.89
68376;BME280;55318;52.068;5.188;2023-04-27T02:55:08;102131.0;;;2.13;93.12
68376;BME280;55318;52.068;5.188;2023-04-27T02:58:21;102131.0;;;2.15;93.05
68376;BME280;55318;52.068;5.188;2023-04-27T02:59:57;102137.0;;;2.16;93.24
68376;BME280;55318;52.068;5.188;2023-04-27T03:01:33;102135.0;;;2.15;93.18
68376;BME280;55318;52.068;5.188;2023-04-27T03:04:45;102137.0;;;2.11;93.2
68376;BME280;55318;52.068;5.188;2023-04-27T03:06:21;102140.0;;;2.08;93.15
68376;BME280;55318;52.068;5.188;2023-04-27T03:07:57;102141.0;;;2.08;92.88
68376;BME280;55318;52.068;5.188;2023-04-27T03:11:09;102143.0;;;2.07;93.28
68376;BME280;55318;52.068;5.188;2023-04-27T03:12:46;102142.0;;;2.05;93.17
68376;BME280;55318;52.068;5.188;2023-04-27T03:14:22;102146.0;;;2.04;92.91
68376;BME280;55318;52.068;5.188;2023-04-27T03:15:58;102141.0;;;2.04;92.94
68376;BME280;55318;52.068;5.188;2023-04-27T03:19:10;102143.0;;;1.99;92.91
68376;BME280;55318;52.068;5.188;2023-04-27T03:20:46;102144.0;;;1.96;92.88
68376;BME280;55318;52.068;5.188;2023-04-27T03:22:23;102145.0;;;1.96;92.91
68376;BME280;55318;52.068;5.188;2023-04-27T03:25:35;102148.0;;;2.04;92.87
68376;BME280;55318;52.068;5.188;2023-04-27T03:27:11;102145.0;;;1.99;93.06
68376;BME280;55318;52.068;5.188;2023-04-27T03:28:47;102141.0;;;1.97;92.77
68376;BME280;55318;52.068;5.188;2023-04-27T03:31:59;102137.0;;;1.95;92.9
68376;BME280;55318;52.068;5.188;2023-04-27T03:33:36;102143.0;;;1.91;92.78
68376;BME280;55318;52.068;5.188;2023-04-27T03:35:12;102146.0;;;1.94;92.93
68376;BME280;55318;52.068;5.188;2023-04-27T03:38:26;102139.0;;;1.93;92.66
68376;BME280;55318;52.068;5.188;2023-04-27T03:40:03;102140.0;;;1.93;93.03
68376;BME280;55318;52.068;5.188;2023-04-27T03:41:40;102139.0;;;1.88;92.96
68376;BME280;55318;52.068;5.188;2023-04-27T03:43:16;102142.0;;;1.88;92.9
68376;BME280;55318;52.068;5.188;2023-04-27T03:46:28;102143.0;;;1.9;92.89
68376;BME280;55318;52.068;5.188;2023-04-27T03:48:05;102144.0;;;1.87;93.01
68376;BME280;55318;52.068;5.188;2023-04-27T03:49:40;102141.0;;;1.83;93.0
68376;BME280;55318;52.068;5.188;2023-04-27T03:52:52;102142.0;;;1.86;93.04
68376;BME280;55318;52.068;5.188;2023-04-27T03:54:30;102142.0;;;1.81;93.21
68376;BME280;55318;52.068;5.188;2023-04-27T03:56:06;102137.0;;;1.79;93.27
68376;BME280;55318;52.068;5.188;2023-04-27T03:59:18;102138.0;;;1.81;93.14
68376;BME280;55318;52.068;5.188;2023-04-27T04:00:54;102142.0;;;1.8;93.03
68376;BME280;55318;52.068;5.188;2023-04-27T04:02:30;102144.0;;;1.79;92.91
68376;BME280;55318;52.068;5.188;2023-04-27T04:04:06;102147.0;;;1.78;92.8
68376;BME280;55318;52.068;5.188;2023-04-27T04:07:19;102145.0;;;1.74;92.98
68376;BME280;55318;52.068;5.188;2023-04-27T04:08:55;102148.0;;;1.76;93.31
68376;BME280;55318;52.068;5.188;2023-04-27T04:10:31;102150.0;;;1.75;93.34
68376;BME280;55318;52.068;5.188;2023-04-27T04:13:43;102148.0;;;1.77;93.18
68376;BME280;55318;52.068;5.188;2023-04-27T04:15:19;102147.0;;;1.78;93.24
68376;BME280;55318;52.068;5.188;2023-04-27T04:16:55;102152.0;;;1.78;93.34
68376;BME280;55318;52.068;5.188;2023-04-27T04:20:08;102155.0;;;1.76;93.62
68376;BME280;55318;52.068;5.188;2023-04-27T04:21:45;102158.0;;;1.75;93.88
68376;BME280;55318;52.068;5.188;2023-04-27T04:23:21;102163.0;;;1.73;93.59
68376;BME280;55318;52.068;5.188;2023-04-27T04:26:33;102162.0;;;1.72;93.66
68376;BME280;55318;52.068;5.188;2023-04-27T04:28:09;102168.0;;;1.76;93.82
68376;BME280;55318;52.068;5.188;2023-04-27T04:29:45;102171.0;;;1.7;93.78
68376;BME280;55318;52.068;5.188;2023-04-27T04:31:21;102174.0;;;1.71;93.43
68376;BME280;55318;52.068;5.188;2023-04-27T04:34:34;102177.0;;;1.7;93.73
68376;BME280;55318;52.068;5.188;2023-04-27T04:36:10;102174.0;;;1.73;93.87
68376;BME280;55318;52.068;5.188;2023-04-27T04:37:46;102176.0;;;1.74;93.95
68376;BME280;55318;52.068;5.188;2023-04-27T04:40:58;102180.0;;;1.78;94.05
68376;BME280;55318;52.068;5.188;2023-04-27T04:42:34;102178.0;;;1.82;94.08
68376;BME280;55318;52.068;5.188;2023-04-27T04:44:10;102182.0;;;1.85;94.18
68376;BME280;55318;52.068;5.188;2023-04-27T04:47:23;102180.0;;;1.86;94.28
68376;BME280;55318;52.068;5.188;2023-04-27T04:48:59;102182.0;;;1.84;94.52
68376;BME280;55318;52.068;5.188;2023-04-27T04:50:35;102177.0;;;1.86;94.35
68376;BME280;55318;52.068;5.188;2023-04-27T04:52:11;102174.0;;;1.91;94.29
68376;BME280;55318;52.068;5.188;2023-04-27T04:55:24;102180.0;;;1.93;94.26
68376;BME280;55318;52.068;5.188;2023-04-27T04:57:00;102180.0;;;1.95;94.31
68376;BME280;55318;52.068;5.188;2023-04-27T04:58:36;102182.0;;;2.04;94.61
68376;BME280;55318;52.068;5.188;2023-04-27T05:01:49;102184.0;;;2.07;94.26
68376;BME280;55318;52.068;5.188;2023-04-27T05:03:26;102181.0;;;2.13;94.22
68376;BME280;55318;52.068;5.188;2023-04-27T05:05:02;102181.0;;;2.15;94.6
68376;BME280;55318;52.068;5.188;2023-04-27T05:08:15;102178.0;;;2.17;94.31
68376;BME280;55318;52.068;5.188;2023-04-27T05:09:51;102174.0;;;2.25;94.55
68376;BME280;55318;52.068;5.188;2023-04-27T05:11:27;102180.0;;;2.31;94.45
68376;BME280;55318;52.068;5.188;2023-04-27T05:14:40;102178.0;;;2.39;94.56
68376;BME280;55318;52.068;5.188;2023-04-27T05:16:16;102174.0;;;2.5;94.58
68376;BME280;55318;52.068;5.188;2023-04-27T05:17:53;102175.0;;;2.58;94.57
68376;BME280;55318;52.068;5.188;2023-04-27T05:19:29;102180.0;;;2.69;94.63
68376;BME280;55318;52.068;5.188;2023-04-27T05:22:48;102185.0;;;2.75;94.39
68376;BME280;55318;52.068;5.188;2023-04-27T05:24:24;102189.0;;;2.83;95.0
68376;BME280;55318;52.068;5.188;2023-04-27T05:26:00;102186.0;;;2.85;94.79
68376;BME280;55318;52.068;5.188;2023-04-27T05:29:13;102188.0;;;2.96;95.08
68376;BME280;55318;52.068;5.188;2023-04-27T05:30:49;102194.0;;;3.06;95.21
68376;BME280;55318;52.068;5.188;2023-04-27T05:32:25;102197.0;;;3.2;95.42
68376;BME280;55318;52.068;5.188;2023-04-27T05:35:37;102200.0;;;3.34;95.62
68376;BME280;55318;52.068;5.188;2023-04-27T05:37:13;102199.0;;;3.48;94.83
68376;BME280;55318;52.068;5.188;2023-04-27T05:38:49;102198.0;;;3.55;94.88
68376;BME280;55318;52.068;5.188;2023-04-27T05:40:26;102195.0;;;3.79;94.15
68376;BME280;55318;52.068;5.188;2023-04-27T05:43:39;102188.0;;;3.96;93.5
68376;BME280;55318;52.068;5.188;2023-04-27T05:45:15;102183.0;;;4.18;93.03
68376;BME280;55318;52.068;5.188;2023-04-27T05:46:51;102182.0;;;4.42;92.48
68376;BME280;55318;52.068;5.188;2023-04-27T05:50:04;102184.0;;;4.66;91.08
68376;BME280;55318;52.068;5.188;2023-04-27T05:51:40;102183.0;;;4.84;89.09
68376;BME280;55318;52.068;5.188;2023-04-27T05:53:16;102185.0;;;4.97;86.9
68376;BME280;55318;52.068;5.188;2023-04-27T05:56:29;102183.0;;;5.07;85.49
68376;BME280;55318;52.068;5.188;2023-04-27T05:58:05;102183.0;;;5.13;84.84
68376;BME280;55318;52.068;5.188;2023-04-27T05:59:41;102180.0;;;5.35;83.54
68376;BME280;55318;52.068;5.188;2023-04-27T06:01:18;102182.0;;;5.48;82.53
68376;BME280;55318;52.068;5.188;2023-04-27T06:04:30;102184.0;;;5.68;81.84
68376;BME280;55318;52.068;5.188;2023-04-27T06:06:06;102177.0;;;5.88;81.55
68376;BME280;55318;52.068;5.188;2023-04-27T06:07:42;102185.0;;;5.99;81.08
68376;BME280;55318;52.068;5.188;2023-04-27T06:10:55;102185.0;;;6.27;80.27
68376;BME280;55318;52.068;5.188;2023-04-27T06:12:31;102181.0;;;6.34;78.66
68376;BME280;55318;52.068;5.188;2023-04-27T06:14:07;102185.0;;;6.61;78.69
68376;BME280;55318;52.068;5.188;2023-04-27T06:17:20;102189.0;;;6.58;76.97
68376;BME280;55318;52.068;5.188;2023-04-27T06:18:56;102192.0;;;6.93;76.27
68376;BME280;55318;52.068;5.188;2023-04-27T06:20:32;102189.0;;;7.27;75.09
68376;BME280;55318;52.068;5.188;2023-04-27T06:22:09;102190.0;;;7.3;73.7
68376;BME280;55318;52.068;5.188;2023-04-27T06:25:21;102190.0;;;7.39;72.66
68376;BME280;55318;52.068;5.188;2023-04-27T06:26:57;102192.0;;;7.64;71.97
68376;BME280;55318;52.068;5.188;2023-04-27T06:28:33;102189.0;;;7.73;71.34
68376;BME280;55318;52.068;5.188;2023-04-27T06:31:46;102185.0;;;7.96;70.13
68376;BME280;55318;52.068;5.188;2023-04-27T06:33:22;102188.0;;;8.0;69.83
68376;BME280;55318;52.068;5.188;2023-04-27T06:34:59;102193.0;;;8.23;70.08
68376;BME280;55318;52.068;5.188;2023-04-27T06:39:47;102188.0;;;8.51;67.72
68376;BME280;55318;52.068;5.188;2023-04-27T06:41:24;102197.0;;;8.57;66.87
68376;BME280;55318;52.068;5.188;2023-04-27T06:44:38;102195.0;;;8.89;67.22
68376;BME280;55318;52.068;5.188;2023-04-27T06:46:13;102192.0;;;9.26;67.83
68376;BME280;55318;52.068;5.188;2023-04-27T06:47:50;102196.0;;;9.52;66.58
68376;BME280;55318;52.068;5.188;2023-04-27T06:49:26;102188.0;;;9.71;65.19
68376;BME280;55318;52.068;5.188;2023-04-27T06:52:39;102192.0;;;10.06;64.06
68376;BME280;55318;52.068;5.188;2023-04-27T06:54:15;102188.0;;;10.29;64.89
68376;BME280;55318;52.068;5.188;2023-04-27T06:55:51;102186.0;;;10.31;61.65
68376;BME280;55318;52.068;5.188;2023-04-27T06:59:04;102187.0;;;10.56;62.58
68376;BME280;55318;52.068;5.188;2023-04-27T07:00:40;102183.0;;;10.6;61.11
68376;BME280;55318;52.068;5.188;2023-04-27T07:02:16;102186.0;;;10.49;60.12
68376;BME280;55318;52.068;5.188;2023-04-27T07:05:28;102185.0;;;10.56;60.57
68376;BME280;55318;52.068;5.188;2023-04-27T07:07:03;102186.0;;;10.65;60.29
68376;BME280;55318;52.068;5.188;2023-04-27T07:08:41;102191.0;;;10.63;60.42
68376;BME280;55318;52.068;5.188;2023-04-27T07:10:18;102194.0;;;10.95;59.95
68376;BME280;55318;52.068;5.188;2023-04-27T07:13:30;102201.0;;;11.07;59.27
68376;BME280;55318;52.068;5.188;2023-04-27T07:15:07;102200.0;;;11.61;60.06
68376;BME280;55318;52.068;5.188;2023-04-27T07:16:44;102205.0;;;11.57;55.71
68376;BME280;55318;52.068;5.188;2023-04-27T07:19:57;102205.0;;;11.43;55.18
68376;BME280;55318;52.068;5.188;2023-04-27T07:21:33;102205.0;;;11.33;55.33
68376;BME280;55318;52.068;5.188;2023-04-27T07:23:09;102198.0;;;11.28;55.32
68376;BME280;55318;52.068;5.188;2023-04-27T07:26:22;102202.0;;;11.62;56.58
68376;BME280;55318;52.068;5.188;2023-04-27T07:27:58;102201.0;;;11.63;55.54
68376;BME280;55318;52.068;5.188;2023-04-27T07:29:34;102201.0;;;11.5;54.95
68376;BME280;55318;52.068;5.188;2023-04-27T07:32:48;102202.0;;;11.43;55.92
68376;BME280;55318;52.068;5.188;2023-04-27T07:34:25;102193.0;;;11.37;56.2
68376;BME280;55318;52.068;5.188;2023-04-27T07:36:02;102194.0;;;11.27;54.93
68376;BME280;55318;52.068;5.188;2023-04-27T07:37:38;102188.0;;;11.24;55.22
68376;BME280;55318;52.068;5.188;2023-04-27T07:40:50;102186.0;;;11.4;55.74
68376;BME280;55318;52.068;5.188;2023-04-27T07:42:26;102190.0;;;11.49;56.31
68376;BME280;55318;52.068;5.188;2023-04-27T07:44:02;102187.0;;;11.49;54.79
68376;BME280;55318;52.068;5.188;2023-04-27T07:48:51;102197.0;;;11.61;53.66
68376;BME280;55318;52.068;5.188;2023-04-27T07:50:29;102197.0;;;11.53;53.8
68376;BME280;55318;52.068;5.188;2023-04-27T07:52:06;102198.0;;;11.37;53.38
68376;BME280;55318;52.068;5.188;2023-04-27T07:55:19;102198.0;;;11.67;53.35
68376;BME280;55318;52.068;5.188;2023-04-27T07:56:55;102195.0;;;11.83;52.93
68376;BME280;55318;52.068;5.188;2023-04-27T07:58:31;102195.0;;;12.04;53.17
68376;BME280;55318;52.068;5.188;2023-04-27T08:01:44;102205.0;;;11.58;51.29
68376;BME280;55318;52.068;5.188;2023-04-27T08:03:20;102197.0;;;11.87;52.32
68376;BME280;55318;52.068;5.188;2023-04-27T08:04:57;102196.0;;;12.03;52.27
68376;BME280;55318;52.068;5.188;2023-04-27T08:08:09;102195.0;;;12.01;52.83
68376;BME280;55318;52.068;5.188;2023-04-27T08:09:45;102197.0;;;12.22;52.65
68376;BME280;55318;52.068;5.188;2023-04-27T08:11:21;102197.0;;;12.12;52.78
68376;BME280;55318;52.068;5.188;2023-04-27T08:14:34;102201.0;;;12.41;53.75
68376;BME280;55318;52.068;5.188;2023-04-27T08:16:09;102198.0;;;12.54;52.98
68376;BME280;55318;52.068;5.188;2023-04-27T08:17:46;102200.0;;;12.25;48.91
68376;BME280;55318;52.068;5.188;2023-04-27T08:19:22;102207.0;;;12.12;48.86
68376;BME280;55318;52.068;5.188;2023-04-27T08:22:35;102200.0;;;12.01;50.34
68376;BME280;55318;52.068;5.188;2023-04-27T08:24:11;102196.0;;;12.09;49.73
68376;BME280;55318;52.068;5.188;2023-04-27T08:25:47;102196.0;;;12.39;49.7
68376;BME280;55318;52.068;5.188;2023-04-27T08:28:59;102196.0;;;12.06;49.2
68376;BME280;55318;52.068;5.188;2023-04-27T08:30:37;102194.0;;;12.08;48.53
68376;BME280;55318;52.068;5.188;2023-04-27T08:32:13;102187.0;;;12.24;48.6
68376;BME280;55318;52.068;5.188;2023-04-27T08:35:26;102186.0;;;12.13;48.12
68376;BME280;55318;52.068;5.188;2023-04-27T08:37:02;102187.0;;;12.1;49.55
68376;BME280;55318;52.068;5.188;2023-04-27T08:38:38;102189.0;;;11.91;48.11
68376;BME280;55318;52.068;5.188;2023-04-27T08:40:14;102187.0;;;11.84;48.16
68376;BME280;55318;52.068;5.188;2023-04-27T08:43:31;102189.0;;;12.09;49.31
68376;BME280;55318;52.068;5.188;2023-04-27T08:45:09;102188.0;;;12.14;49.89
68376;BME280;55318;52.068;5.188;2023-04-27T08:46:46;102187.0;;;12.15;48.52
68376;BME280;55318;52.068;5.188;2023-04-27T08:49:58;102183.0;;;12.49;48.65
68376;BME280;55318;52.068;5.188;2023-04-27T08:51:34;102184.0;;;12.01;47.8
68376;BME280;55318;52.068;5.188;2023-04-27T08:53:18;102183.0;;;12.42;52.56
68376;BME280;55318;52.068;5.188;2023-04-27T08:54:54;102182.0;;;12.16;48.25
68376;BME280;55318;52.068;5.188;2023-04-27T08:58:07;102181.0;;;12.35;48.88
68376;BME280;55318;52.068;5.188;2023-04-27T08:59:43;102183.0;;;12.53;49.41
68376;BME280;55318;52.068;5.188;2023-04-27T09:01:19;102183.0;;;12.59;48.71
68376;BME280;55318;52.068;5.188;2023-04-27T09:04:37;102186.0;;;12.65;48.44
68376;BME280;55318;52.068;5.188;2023-04-27T09:06:14;102186.0;;;12.73;49.18
68376;BME280;55318;52.068;5.188;2023-04-27T09:07:59;102181.0;;;12.64;48.53
68376;BME280;55318;52.068;5.188;2023-04-27T09:09:35;102183.0;;;12.87;48.7
68376;BME280;55318;52.068;5.188;2023-04-27T09:12:57;102180.0;;;12.52;47.64
68376;BME280;55318;52.068;5.188;2023-04-27T09:14:34;102177.0;;;12.56;46.41
68376;BME280;55318;52.068;5.188;2023-04-27T09:16:12;102178.0;;;12.66;46.06
68376;BME280;55318;52.068;5.188;2023-04-27T09:19:29;102180.0;;;12.7;46.66
68376;BME280;55318;52.068;5.188;2023-04-27T09:21:05;102180.0;;;12.7;45.62
68376;BME280;55318;52.068;5.188;2023-04-27T09:22:42;102180.0;;;12.81;45.54
68376;BME280;55318;52.068;5.188;2023-04-27T09:24:19;102177.0;;;12.98;46.05
68376;BME280;55318;52.068;5.188;2023-04-27T09:27:32;102171.0;;;13.21;45.64
68376;BME280;55318;52.068;5.188;2023-04-27T09:29:08;102174.0;;;13.24;43.66
68376;BME280;55318;52.068;5.188;2023-04-27T09:30:51;102170.0;;;13.09;44.51
68376;BME280;55318;52.068;5.188;2023-04-27T09:34:03;102171.0;;;13.38;44.76
68376;BME280;55318;52.068;5.188;2023-04-27T09:35:40;102173.0;;;13.4;43.68
68376;BME280;55318;52.068;5.188;2023-04-27T09:37:17;102167.0;;;13.14;43.54
68376;BME280;55318;52.068;5.188;2023-04-27T09:38:54;102164.0;;;13.25;43.94
68376;BME280;55318;52.068;5.188;2023-04-27T09:42:07;102174.0;;;13.33;43.56
68376;BME280;55318;52.068;5.188;2023-04-27T09:43:44;102172.0;;;13.12;43.61
68376;BME280;55318;52.068;5.188;2023-04-27T09:45:21;102171.0;;;13.1;43.6
68376;BME280;55318;52.068;5.188;2023-04-27T09:48:37;102163.0;;;13.06;43.74
68376;BME280;55318;52.068;5.188;2023-04-27T09:50:14;102164.0;;;13.47;44.5
68376;BME280;55318;52.068;5.188;2023-04-27T09:51:51;102161.0;;;13.2;43.99
68376;BME280;55318;52.068;5.188;2023-04-27T09:53:29;102155.0;;;13.35;45.56
68376;BME280;55318;52.068;5.188;2023-04-27T09:57:02;102162.0;;;13.43;43.62
68376;BME280;55318;52.068;5.188;2023-04-27T09:58:54;102158.0;;;13.34;43.83
68376;BME280;55318;52.068;5.188;2023-04-27T10:00:50;102161.0;;;13.26;43.81
68376;BME280;55318;52.068;5.188;2023-04-27T10:02:40;102162.0;;;13.72;46.56
68376;BME280;55318;52.068;5.188;2023-04-27T10:04:37;102168.0;;;13.82;42.97
68376;BME280;55318;52.068;5.188;2023-04-27T10:06:50;102166.0;;;14.09;42.72
68376;BME280;55318;52.068;5.188;2023-04-27T10:08:56;102164.0;;;14.26;43.67
68376;BME280;55318;52.068;5.188;2023-04-27T10:10:41;102164.0;;;14.34;41.8
68376;BME280;55318;52.068;5.188;2023-04-27T10:12:20;102160.0;;;14.46;42.79
68376;BME280;55318;52.068;5.188;2023-04-27T10:15:41;102161.0;;;14.42;40.43
68376;BME280;55318;52.068;5.188;2023-04-27T10:17:22;102160.0;;;14.29;41.81
68376;BME280;55318;52.068;5.188;2023-04-27T10:19:08;102153.0;;;14.28;41.66
68376;BME280;55318;52.068;5.188;2023-04-27T10:20:45;102157.0;;;14.27;39.71
68376;BME280;55318;52.068;5.188;2023-04-27T10:24:06;102164.0;;;14.26;39.14
68376;BME280;55318;52.068;5.188;2023-04-27T10:25:45;102159.0;;;14.09;38.75
68376;BME280;55318;52.068;5.188;2023-04-27T10:27:21;102157.0;;;14.11;39.24
68376;BME280;55318;52.068;5.188;2023-04-27T10:30:43;102158.0;;;14.57;40.69
68376;BME280;55318;52.068;5.188;2023-04-27T10:32:23;102156.0;;;14.74;42.62
68376;BME280;55318;52.068;5.188;2023-04-27T10:34:08;102170.0;;;14.77;41.67
68376;BME280;55318;52.068;5.188;2023-04-27T10:35:53;102160.0;;;14.46;40.81
68376;BME280;55318;52.068;5.188;2023-04-27T10:37:38;102159.0;;;14.46;40.46
68376;BME280;55318;52.068;5.188;2023-04-27T10:40:54;102163.0;;;14.68;40.93
68376;BME280;55318;52.068;5.188;2023-04-27T10:42:30;102160.0;;;14.8;41.74
68376;BME280;55318;52.068;5.188;2023-04-27T10:44:15;102151.0;;;14.92;41.12
68376;BME280;55318;52.068;5.188;2023-04-27T10:45:52;102152.0;;;15.09;43.45
68376;BME280;55318;52.068;5.188;2023-04-27T10:49:15;102155.0;;;15.36;42.14
68376;BME280;55318;52.068;5.188;2023-04-27T10:50:51;102155.0;;;14.95;38.03
68376;BME280;55318;52.068;5.188;2023-04-27T10:52:27;102156.0;;;14.78;37.5
68376;BME280;55318;52.068;5.188;2023-04-27T10:55:39;102149.0;;;15.03;40.35
68376;BME280;55318;52.068;5.188;2023-04-27T10:57:15;102158.0;;;15.0;39.19
68376;BME280;55318;52.068;5.188;2023-04-27T10:58:51;102153.0;;;15.03;39.67
68376;BME280;55318;52.068;5.188;2023-04-27T11:00:29;102146.0;;;15.04;38.9
68376;BME280;55318;52.068;5.188;2023-04-27T11:03:42;102148.0;;;15.11;39.83
68376;BME280;55318;52.068;5.188;2023-04-27T11:05:19;102147.0;;;15.22;41.03
68376;BME280;55318;52.068;5.188;2023-04-27T11:06:56;102140.0;;;15.3;39.29
68376;BME280;55318;52.068;5.188;2023-04-27T11:10:19;102135.0;;;15.71;41.63
68376;BME280;55318;52.068;5.188;2023-04-27T11:11:55;102135.0;;;15.57;38.14
68376;BME280;55318;52.068;5.188;2023-04-27T11:13:32;102125.0;;;15.57;37.18
68376;BME280;55318;52.068;5.188;2023-04-27T11:15:08;102125.0;;;15.57;37.15
68376;BME280;55318;52.068;5.188;2023-04-27T11:18:24;102119.0;;;15.73;38.42
68376;BME280;55318;52.068;5.188;2023-04-27T11:20:01;102109.0;;;15.91;38.03